Stirum, ND (58069)

4:48 PM CDT on October 22, 2014 (GMT -0500)
Gwinner-melroe | Change Station
CLOSE
Current Station
Airport
Location: Gwinner,
Elevation: 1266 ft
Nearby Weather Stations

Elev 1266 ft 46.22 °N, 97.64 °W | Updated 13 minutes ago

Mostly Cloudy
Mostly Cloudy
55 °F
Feels Like 55 °F
N
8
Wind Variable Wind from WSW

Today
High -- | Low -- °F
--% Chance of Precip.
Yesterday
High -- | Low -- °F
Precip. -- in
7:57 AM 6:31 PM
Waning Crescent, 1% visible
Pressure 29.89 in
Visibility 10.0 miles
Clouds Few 8500 ft
Mostly Cloudy 9500 ft
Dew Point 55 °F
Humidity 100%
Rainfall 0.08 in
Snow Depth Not available.
UV 1 out of 12
Pollen 1.70 out of 12
Air Quality Not available.
Flu Activity Local Activity
METAR KGWR 222135Z AUTO 24007KT 10SM FEW085 BKN095 13/13 A2989 RMK A01 P000

More Conditions Fewer Conditions

Pressure 29.89 in
Visibility 10.0 miles
Clouds Few 8500 ft
Mostly Cloudy 9500 ft
Dew Point 55 °F
Humidity 100%
Rainfall 0.08 in
Snow Depth Not available.
UV 1 out of 12
Pollen 1.70 out of 12
Air Quality Not available.
Flu Activity Local Activity
METAR KGWR 222135Z AUTO 24007KT 10SM FEW085 BKN095 13/13 A2989 RMK A01 P000

More Conditions Fewer Conditions

10-Day Weather Forecast

Almanac

Astronomy

Oct. 22, 2014 Rise Set
Actual Time 7:57 AM CDT 6:31 PM CDT
Civil Twilight 7:26 AM CDT 7:02 PM CDT
Nautical Twilight 6:51 AM CDT 7:37 PM CDT
Astronomical Twilight 6:17 AM CDT 8:12 PM CDT
Moon 6:36 AM CDT 6:02 PM CDT
Length of Visible Light 11h 35m
Length of Day
10h 34m
Tomorrow will be 3m 5s shorter.
Waning Crescent, 1% of the Moon is Illuminated
Today
Waning Crescent
Oct 23
New
Oct 30
First Quarter
Nov 6
Full
Nov 14
Last Quarter

Today's Extremes

State Highs State Lows

Community

WunderPhotos

Upload Photos

1,764,047 photos uploaded!

WunderBlogs® & News

Nearby

Snow Depth

Station Depth Elevation
No new snow has been reported.

Earthquake Activity

City Distance Mag. Time & Date
No recent earthquake activity has been reported nearby.
Minimum magnitude displayed is 2.5.

Coastal Water Temperatures

Place Temperature
No Stations Reporting

Nearby Weather Stations